Nearby METAR Reports

 

KHFD - Hartford/Brainar, Connecticut, USA
Distance from station: ESE 5mi, 8km
Updated: Sun, 09-May-2021 5:53am EDT
Clear
Clear
 Wind from WSW
Wind: WSW 3 mph , 6 km/h
Temperature: 43°F , 6°C
Dew Point: 39°F , 4°C
Humidity: 87%
Barometer: 29.98 inHg , 1015.2 hPa
Clouds: Clear
Visibility: 10 miles , 16 km
2021/05/09 09:53 KHFD 090953Z AUTO 25003KT 10SM CLR 06/04 A2998 RMK AO2 SLP153 T00560039
KBDL - Windsor Locks, Connecticut, USA
Distance from station: NNE 12mi, 20km
Updated: Sun, 09-May-2021 5:51am EDT
Few Clouds
Few Clouds
 Wind from W
Wind: W 5 mph , 7 km/h
Temperature: 45°F , 7°C
Wind Chill: 42°F , 6°C
Dew Point: 37°F , 3°C
Humidity: 76%
Barometer: 29.97 inHg , 1014.9 hPa
Clouds: Few Clouds
Visibility: 10 miles , 16 km
Cloud details: Few Clouds 5000 ft
2021/05/09 09:51 KBDL 090951Z 28004KT 10SM FEW050 07/03 A2997 RMK AO2 SLP149 T00670028
 
KMMK - Meriden, Connecticut, USA
Distance from station: SSW 18mi, 28km
Updated: Sun, 09-May-2021 5:53am EDT
Clear
Clear
 Wind from calm
Wind: Calm
Temperature: 36°F , 2°C
Dew Point: 34°F , 1°C
Humidity: 93%
Barometer: 30.00 inHg , 1015.9 hPa
Clouds: Clear
Visibility: 10 miles , 16 km
2021/05/09 09:53 KMMK 090953Z AUTO 00000KT 10SM CLR 02/01 A3000 RMK AO2 SLP158 T00170011 $
KBAF - Westfield, Massachusetts, USA
Distance from station: N 28mi, 45km
Updated: Sun, 09-May-2021 5:53am EDT
Clear
Clear
 Wind from calm
Wind: Calm
Temperature: 43°F , 6°C
Dew Point: 37°F , 3°C
Humidity: 81%
Barometer: 29.96 inHg , 1014.6 hPa
Clouds: Clear
Visibility: 10 miles , 16 km
2021/05/09 09:53 KBAF 090953Z AUTO 00000KT 10SM CLR 06/03 A2996 RMK AO2 SLP147 T00610033
 
KIJD - Willimantic, Connecticut, USA
Distance from station: E 29mi, 46km
Updated: Sun, 09-May-2021 5:52am EDT
Clear
Clear
 Wind from calm
Wind: Calm
Temperature: 37°F , 3°C
Dew Point: 36°F , 2°C
Humidity: 93%
Barometer: 29.97 inHg , 1014.9 hPa
Clouds: Clear
Visibility: 10 miles , 16 km
2021/05/09 09:52 KIJD 090952Z AUTO 00000KT 10SM CLR 03/02 A2997 RMK AO2 SLP149 T00280022
KOXC - Oxford/Waterbury, Connecticut, USA
Distance from station: SW 29mi, 46km
Updated: Sun, 09-May-2021 5:51am EDT
Clear
Clear
 Wind from calm
Wind: Calm
Temperature: 39°F , 4°C
Dew Point: 39°F , 4°C
Humidity: 100%
Barometer: 29.99 inHg , 1015.6 hPa
Clouds: Clear
Visibility: 10 miles , 16 km
2021/05/09 09:51 KOXC 090951Z AUTO 00000KT 10SM CLR 04/04 A2999 RMK AO2 SLP172 T00440044
 
KSNC - Chester, Connecticut, USA
Distance from station: SSE 29mi, 47km
Updated: Sun, 09-May-2021 6:35am EDT
Clear
Clear
 Wind from WNW
Wind: WNW 3 mph , 6 km/h
Temperature: 45°F , 7°C
Dew Point: 41°F , 5°C
Humidity: 87%
Barometer: 29.99 inHg , 1015.6 hPa
Clouds: Clear
Visibility: 10 miles , 16 km
2021/05/09 10:35 KSNC 091035Z AUTO 30003KT 10SM CLR 07/05 A2999 RMK AO2
KCEF - Chicopee/Westove, Massachusetts, USA
Distance from station: NNE 32mi, 52km
Updated: Sun, 09-May-2021 5:56am EDT
Clear
Clear
 Wind from calm
Wind: Calm
Temperature: 36°F , 2°C
Dew Point: 36°F , 2°C
Humidity: 100%
Barometer: 29.95 inHg , 1014.2 hPa
Clouds: Clear
Visibility: 10 miles , 16 km
2021/05/09 09:56 KCEF 090956Z AUTO 00000KT 10SM CLR 02/02 A2995 RMK AO2 SLP149 T00240023
 
KHVN - New Haven/Tweed, Connecticut, USA
Distance from station: S 35mi, 56km
Updated: Sun, 09-May-2021 5:53am EDT
Clear
Clear
 Wind from calm
Wind: Calm
Temperature: 45°F , 7°C
Dew Point: 41°F , 5°C
Humidity: 87%
Barometer: 30.00 inHg , 1015.9 hPa
Clouds: Clear
Visibility: 10 miles , 16 km
2021/05/09 09:53 KHVN 090953Z 00000KT 10SM CLR 07/05 A3000 RMK AO2 SLP157 T00720050
KBDR - Bridgeport, Connecticut, USA
Distance from station: SSW 46mi, 74km
Updated: Sun, 09-May-2021 5:52am EDT
Clear
Clear
 Wind from W
Wind: W 6 mph , 9 km/h
Temperature: 45°F , 7°C
Wind Chill: 42°F , 6°C
Dew Point: 39°F , 4°C
Humidity: 81%
Barometer: 30.00 inHg , 1015.9 hPa
Clouds: Clear
Visibility: 10 miles , 16 km
2021/05/09 09:52 KBDR 090952Z AUTO 27005KT 10SM CLR 07/04 A3000 RMK AO2 SLP160 T00670039
 
KGON - Groton/New Londo, Connecticut, USA
Distance from station: SE 46mi, 75km
Updated: Sun, 09-May-2021 5:56am EDT
Clear
Clear
 Wind from W
Wind: W 5 mph , 7 km/h
Temperature: 43°F , 6°C
Wind Chill: 40°F , 4°C
Dew Point: 39°F , 4°C
Humidity: 87%
Barometer: 29.97 inHg , 1014.9 hPa
Clouds: Clear
Visibility: 10 miles , 16 km
2021/05/09 09:56 KGON 090956Z AUTO 26004KT 10SM CLR 06/04 A2997 RMK AO2 SLP150 T00610044
KDXR - Danbury, Connecticut, USA
Distance from station: SW 47mi, 76km
Updated: Sun, 09-May-2021 6:10am EDT
Mist, Clear
Mist, Clear
 Wind from calm
Wind: Calm
Temperature: 36°F , 2°C
Dew Point: 34°F , 1°C
Humidity: 93%
Barometer: 30.02 inHg , 1016.6 hPa
Summary: Mist
Clouds: Clear
Visibility: 5 miles , 8 km
2021/05/09 10:10 KDXR 091010Z AUTO 00000KT 5SM BR CLR 02/01 A3002 RMK AO2 T00220011
 
KPSF - Pittsfield, Massachusetts, USA
Distance from station: NNW 54mi, 87km
Updated: Sun, 09-May-2021 5:54am EDT
Overcast
Overcast
 Wind from WNW
Wind: WNW 10 mph , 17 km/h, Gust: 22 mph , 35 km/h
Temperature: 43°F , 6°C
Wind Chill: 37°F , 3°C
Dew Point: 37°F , 3°C
Humidity: 81%
Barometer: 29.96 inHg , 1014.6 hPa
Clouds: Overcast
Visibility: 10 miles , 16 km
Cloud details: Overcast 1100 ft
2021/05/09 09:54 KPSF 090954Z AUTO 29009G19KT 10SM OVC011 06/03 A2996 RMK AO2 SLP143 T00560028
KWST - Westerly, Rhode Island, USA
Distance from station: ESE 56mi, 91km
Updated: Sun, 09-May-2021 5:53am EDT
Clear
Clear
 Wind from W
Wind: W 5 mph , 7 km/h
Temperature: 41°F , 5°C
Wind Chill: 38°F , 3°C
Dew Point: 39°F , 4°C
Humidity: 93%
Barometer: 29.97 inHg , 1014.9 hPa
Clouds: Clear
Visibility: 10 miles , 16 km
2021/05/09 09:53 KWST 090953Z AUTO 27004KT 10SM CLR 05/04 A2997 RMK AO2 SLP148 T00500044
 
KORH - Worcester, Massachusetts, USA
Distance from station: NE 57mi, 92km
Updated: Sun, 09-May-2021 5:54am EDT
Clear
Clear
 Wind from W
Wind: W 13 mph , 20 km/h
Temperature: 43°F , 6°C
Wind Chill: 36°F , 2°C
Dew Point: 37°F , 3°C
Humidity: 81%
Barometer: 29.93 inHg , 1013.5 hPa
Clouds: Clear
Visibility: 10 miles , 16 km
2021/05/09 09:54 KORH 090954Z AUTO 27011KT 10SM CLR 06/03 A2993 RMK AO2 SLP140 T00610033
KPOU - Poughkeepsie, New York, USA
Distance from station: W 60mi, 96km
Updated: Sun, 09-May-2021 5:53am EDT
Clear
Clear
 Wind from calm
Wind: Calm
Temperature: 37°F , 3°C
Dew Point: 36°F , 2°C
Humidity: 93%
Barometer: 30.01 inHg , 1016.3 hPa
Clouds: Clear
Visibility: 9 miles , 14 km
2021/05/09 09:53 KPOU 090953Z 00000KT 9SM CLR 03/02 A3001 RMK AO2 SLP160 T00280017
 
KORE - Orange, Massachusetts, USA
Distance from station: NNE 60mi, 97km
Updated: Sun, 09-May-2021 5:52am EDT
Clear
Clear
 Wind from SE
Wind: SE 3 mph , 6 km/h
Temperature: 39°F , 4°C
Dew Point: 37°F , 3°C
Humidity: 93%
Barometer: 29.95 inHg , 1014.2 hPa
Clouds: Clear
Visibility: 10 miles , 16 km
2021/05/09 09:52 KORE 090952Z AUTO 13003KT 10SM CLR 04/03 A2995 RMK AO2 SLP144 T00390028
KHTO - East Hampton, New York, USA
Distance from station: SSE 62mi, 99km
Updated: Sun, 09-May-2021 6:35am EDT
Clear
Clear
 Wind from W
Wind: W 3 mph , 6 km/h
Temperature: 46°F , 8°C
Dew Point: 43°F , 6°C
Humidity: 87%
Barometer: 30.00 inHg , 1015.9 hPa
Clouds: Clear
Visibility: 10 miles , 16 km
2021/05/09 10:35 KHTO 091035Z AUTO 28003KT 10SM CLR 08/06 A3000 RMK AO2 T00750059
 
KFOK - Westhampton Beac, New York, USA
Distance from station: S 63mi, 102km
Updated: Sun, 09-May-2021 5:53am EDT
Clear
Clear
 Wind from calm
Wind: Calm
Temperature: 34°F , 1°C
Dew Point: 32°F , 0°C
Humidity: 93%
Barometer: 30.02 inHg , 1016.6 hPa
Clouds: Clear
Visibility: 7 miles , 11 km
2021/05/09 09:53 KFOK 090953Z AUTO 00000KT 7SM CLR 01/00 A3002 RMK AO2 SLP165 T00110000 $
KMTP - Montauk, New York, USA
Distance from station: SE 64mi, 104km
Updated: Sun, 09-May-2021 5:54am EDT

 Wind from W
Wind: W 8 mph , 13 km/h
Temperature: 48°F , 9°C
Wind Chill: 44°F , 7°C
Dew Point: 43°F , 6°C
Humidity: 82%
Barometer: 29.99 inHg , 1015.6 hPa
2021/05/09 09:54 KMTP 090954Z AUTO 28007KT 09/06 A2999 RMK AO1 SLP156 T00940061